createdAt,value
2023-04-10T00:00:36.683Z,29.33
2023-04-10T00:01:36.783Z,29.27
2023-04-10T00:02:36.984Z,29.23
2023-04-10T00:03:37.221Z,29.28
2023-04-10T00:04:36.954Z,29.27
2023-04-10T00:05:37.037Z,29.31
2023-04-10T00:06:37.089Z,29.28
2023-04-10T00:07:37.079Z,29.27
2023-04-10T00:08:37.134Z,29.31
2023-04-10T00:09:37.226Z,29.30
2023-04-10T00:10:37.295Z,29.27
2023-04-10T00:11:38.969Z,29.30
2023-04-10T00:12:37.445Z,29.27
2023-04-10T00:13:37.488Z,29.27
2023-04-10T00:14:37.491Z,29.24
2023-04-10T00:15:37.587Z,29.27
2023-04-10T00:16:37.802Z,29.25
2023-04-10T00:17:37.758Z,29.24
2023-04-10T00:18:37.769Z,29.28
2023-04-10T00:19:37.841Z,29.28
2023-04-10T00:20:37.881Z,29.26
2023-04-10T00:21:37.951Z,29.30
2023-04-10T00:22:38.023Z,29.28
2023-04-10T00:23:38.090Z,29.28
2023-04-10T00:24:38.125Z,29.26
2023-04-10T00:25:38.186Z,29.27
2023-04-10T00:26:38.267Z,29.27
2023-04-10T00:27:38.290Z,29.28
2023-04-10T00:28:38.404Z,29.26
2023-04-10T00:29:38.496Z,29.27
2023-04-10T00:30:38.484Z,29.24
2023-04-10T00:31:38.675Z,29.28
2023-04-10T00:32:38.752Z,29.24
2023-04-10T00:33:38.772Z,29.22
2023-04-10T00:34:38.793Z,29.18
2023-04-10T00:35:38.832Z,29.23
2023-04-10T00:36:38.863Z,29.24
2023-04-10T00:37:38.934Z,29.24
2023-04-10T00:38:39.001Z,29.24
2023-04-10T00:39:39.093Z,29.21
2023-04-10T00:40:39.103Z,29.24
2023-04-10T00:41:39.215Z,29.21
2023-04-10T00:42:39.248Z,29.25
2023-04-10T00:43:39.316Z,29.22
2023-04-10T00:44:39.422Z,29.21
2023-04-10T00:45:39.494Z,29.24
2023-04-10T00:46:39.505Z,29.18
2023-04-10T00:47:39.688Z,29.20
2023-04-10T00:48:39.628Z,29.18
2023-04-10T00:49:39.692Z,29.20
2023-04-10T00:50:39.740Z,29.21
2023-04-10T00:51:39.829Z,29.20
2023-04-10T00:52:39.882Z,29.18
2023-04-10T00:53:39.955Z,29.19
2023-04-10T00:54:39.977Z,29.18
2023-04-10T00:55:40.032Z,29.17
2023-04-10T00:56:40.112Z,29.15
2023-04-10T00:57:40.171Z,29.18
2023-04-10T00:58:40.237Z,29.15
2023-04-10T00:59:40.324Z,29.21
2023-04-10T01:00:40.352Z,29.19
2023-04-10T01:01:40.484Z,29.16
2023-04-10T01:02:40.602Z,29.14
2023-04-10T01:03:40.613Z,29.18
2023-04-10T01:04:40.613Z,29.19
2023-04-10T01:05:40.703Z,29.18
2023-04-10T01:06:40.792Z,29.18
2023-04-10T01:07:40.787Z,29.16
2023-04-10T01:08:40.922Z,29.12
2023-04-10T01:09:40.915Z,29.18
2023-04-10T01:10:40.985Z,29.14
2023-04-10T01:11:41.062Z,29.18
2023-04-10T01:12:41.106Z,29.21
2023-04-10T01:13:41.189Z,29.18
2023-04-10T01:14:41.260Z,29.16
2023-04-10T01:15:41.304Z,29.17
2023-04-10T01:16:41.382Z,29.18
2023-04-10T01:17:41.422Z,29.18
2023-04-10T01:18:41.522Z,29.12
2023-04-10T01:19:41.537Z,29.16
2023-04-10T01:20:41.652Z,29.18
2023-04-10T01:21:41.652Z,29.16
2023-04-10T01:22:41.688Z,29.13
2023-04-10T01:23:41.737Z,29.16
2023-04-10T01:24:41.778Z,29.18
2023-04-10T01:25:41.857Z,29.16
2023-04-10T01:26:41.900Z,29.16
2023-04-10T01:27:41.977Z,29.16
2023-04-10T01:28:43.018Z,29.21
2023-04-10T01:29:43.507Z,29.18
2023-04-10T01:30:42.115Z,29.15
2023-04-10T01:31:42.133Z,29.15
2023-04-10T01:32:42.031Z,29.14
2023-04-10T01:33:42.024Z,29.16
2023-04-10T01:34:42.062Z,29.18
2023-04-10T01:35:42.040Z,29.19
2023-04-10T01:36:42.040Z,29.16
2023-04-10T01:37:41.985Z,29.22
2023-04-10T01:38:42.013Z,29.17
2023-04-10T01:39:41.992Z,29.16
2023-04-10T01:40:41.955Z,29.13
2023-04-10T01:41:41.986Z,29.16
2023-04-10T01:42:43.195Z,29.15
2023-04-10T01:43:42.022Z,29.16
2023-04-10T01:44:41.960Z,29.12
2023-04-10T01:45:41.963Z,29.15
2023-04-10T01:46:41.990Z,29.13
2023-04-10T01:47:41.985Z,29.15
2023-04-10T01:48:41.908Z,29.16
2023-04-10T01:49:41.916Z,29.18
2023-04-10T01:50:41.904Z,29.19
2023-04-10T01:51:41.984Z,29.13
2023-04-10T01:52:41.941Z,29.13
2023-04-10T01:53:41.904Z,29.12
2023-04-10T01:54:41.880Z,29.13
2023-04-10T01:55:41.917Z,29.19
2023-04-10T01:56:41.890Z,29.15
2023-04-10T01:57:41.844Z,29.16
2023-04-10T01:58:41.949Z,29.15
2023-04-10T01:59:41.889Z,29.14
2023-04-10T02:00:41.935Z,29.18
2023-04-10T02:01:41.917Z,29.16
2023-04-10T02:02:41.925Z,29.16
2023-04-10T02:03:41.912Z,29.14
2023-04-10T02:04:42.011Z,29.14
2023-04-10T02:05:41.825Z,29.16
2023-04-10T02:06:41.864Z,29.21
2023-04-10T02:07:41.865Z,29.17
2023-04-10T02:08:41.843Z,29.16
2023-04-10T02:09:41.797Z,29.14
2023-04-10T02:10:41.807Z,29.17
2023-04-10T02:11:41.791Z,29.17
2023-04-10T02:12:41.798Z,29.14
2023-04-10T02:13:41.769Z,29.14
2023-04-10T02:14:41.778Z,29.18
2023-04-10T02:15:42.586Z,29.14
2023-04-10T02:16:41.782Z,29.15
2023-04-10T02:17:41.802Z,29.23
2023-04-10T02:18:41.746Z,29.18
2023-04-10T02:19:41.715Z,29.13
2023-04-10T02:20:41.763Z,29.21
2023-04-10T02:21:41.725Z,29.21
2023-04-10T02:22:41.700Z,29.18
2023-04-10T02:23:41.705Z,29.11
2023-04-10T02:24:41.711Z,29.16
2023-04-10T02:25:41.677Z,29.15
2023-04-10T02:26:41.708Z,29.17
2023-04-10T02:27:41.679Z,29.20
2023-04-10T02:28:41.656Z,29.17
2023-04-10T02:29:41.649Z,29.15
2023-04-10T02:30:41.687Z,29.17
2023-04-10T02:31:41.711Z,29.14
2023-04-10T02:32:41.628Z,29.18
2023-04-10T02:33:41.691Z,29.20
2023-04-10T02:34:41.602Z,29.14
2023-04-10T02:35:41.612Z,29.15
2023-04-10T02:36:41.632Z,29.15
2023-04-10T02:37:41.573Z,29.18
2023-04-10T02:38:41.570Z,29.17
2023-04-10T02:39:41.598Z,29.13
2023-04-10T02:40:41.572Z,29.14
2023-04-10T02:41:41.571Z,29.17
2023-04-10T02:42:41.535Z,29.14
2023-04-10T02:43:41.547Z,29.15
2023-04-10T02:44:41.577Z,29.15
2023-04-10T02:45:41.542Z,29.18
2023-04-10T02:46:41.578Z,29.15
2023-04-10T02:47:41.572Z,29.12
2023-04-10T02:48:41.557Z,29.15
2023-04-10T02:49:41.537Z,29.14
2023-04-10T02:50:41.485Z,29.14
2023-04-10T02:51:41.471Z,29.15
2023-04-10T02:52:41.492Z,29.08
2023-04-10T02:53:41.471Z,29.12
2023-04-10T02:54:41.455Z,29.12
2023-04-10T02:55:41.447Z,29.14
2023-04-10T02:56:41.454Z,29.15
2023-04-10T02:57:41.439Z,29.12
2023-04-10T02:58:41.989Z,29.12
2023-04-10T02:59:41.510Z,29.15
2023-04-10T03:00:41.465Z,29.14
2023-04-10T03:01:41.534Z,29.11
2023-04-10T03:02:41.529Z,29.15
2023-04-10T03:03:41.439Z,29.12
2023-04-10T03:04:41.491Z,29.15
2023-04-10T03:05:41.414Z,29.11
2023-04-10T03:06:41.498Z,29.11
2023-04-10T03:07:41.452Z,29.12
2023-04-10T03:08:41.493Z,29.12
2023-04-10T03:09:41.506Z,29.08
2023-04-10T03:10:41.483Z,29.12
2023-04-10T03:11:41.557Z,29.15
2023-04-10T03:12:41.465Z,29.10
2023-04-10T03:13:41.491Z,29.11
2023-04-10T03:14:41.500Z,29.12
2023-04-10T03:15:41.573Z,29.11
2023-04-10T03:16:41.605Z,29.11
2023-04-10T03:17:41.657Z,29.08
2023-04-10T03:18:41.596Z,29.12
2023-04-10T03:19:41.594Z,29.08
2023-04-10T03:20:43.195Z,29.09
2023-04-10T03:21:41.731Z,29.09
2023-04-10T03:22:41.711Z,29.12
2023-04-10T03:23:41.562Z,29.12
2023-04-10T03:24:41.626Z,29.12
2023-04-10T03:25:41.532Z,29.17
2023-04-10T03:26:41.547Z,29.12
2023-04-10T03:27:41.529Z,29.13
2023-04-10T03:28:41.507Z,29.11
2023-04-10T03:29:41.502Z,29.08
2023-04-10T03:30:41.519Z,29.14
2023-04-10T03:31:41.548Z,29.12
2023-04-10T03:32:41.519Z,29.09
2023-04-10T03:33:41.546Z,29.12
2023-04-10T03:34:41.512Z,29.12
2023-04-10T03:35:41.503Z,29.06
2023-04-10T03:36:41.465Z,29.13
2023-04-10T03:37:41.496Z,29.08
2023-04-10T03:38:41.502Z,29.08
2023-04-10T03:39:41.472Z,29.10
2023-04-10T03:40:41.509Z,29.11
2023-04-10T03:41:41.430Z,29.10
2023-04-10T03:42:41.440Z,29.09
2023-04-10T03:43:41.428Z,29.07
2023-04-10T03:44:41.418Z,29.12
2023-04-10T03:45:41.440Z,29.08
2023-04-10T03:46:41.491Z,29.10
2023-04-10T03:47:41.466Z,29.09
2023-04-10T03:48:41.512Z,29.06
2023-04-10T03:49:41.396Z,29.13
2023-04-10T03:50:41.465Z,29.09
2023-04-10T03:51:41.456Z,29.06
2023-04-10T03:52:41.412Z,29.13
2023-04-10T03:53:41.391Z,29.10
2023-04-10T03:54:41.361Z,29.11
2023-04-10T03:55:41.347Z,29.14
2023-04-10T03:56:41.358Z,29.11
2023-04-10T03:57:41.327Z,29.11
2023-04-10T03:58:41.300Z,29.04
2023-04-10T03:59:41.330Z,29.01
2023-04-10T04:00:41.335Z,28.94
2023-04-10T04:01:41.403Z,28.87
2023-04-10T04:02:41.517Z,28.83
2023-04-10T04:03:41.399Z,28.74
2023-04-10T04:04:41.311Z,28.67
2023-04-10T04:05:41.297Z,28.63
2023-04-10T04:06:41.288Z,28.59
2023-04-10T04:07:41.246Z,28.56
2023-04-10T04:08:41.224Z,28.52
2023-04-10T04:09:41.208Z,28.47
2023-04-10T04:10:41.227Z,28.47
2023-04-10T04:11:41.311Z,28.43
2023-04-10T04:12:41.276Z,28.40
2023-04-10T04:13:41.180Z,28.36
2023-04-10T04:14:41.272Z,28.33
2023-04-10T04:15:41.206Z,28.29
2023-04-10T04:16:41.189Z,28.30
2023-04-10T04:17:41.219Z,28.24
2023-04-10T04:18:41.904Z,28.25
2023-04-10T04:19:41.170Z,28.23
2023-04-10T04:20:41.217Z,28.23
2023-04-10T04:21:41.304Z,28.20
2023-04-10T04:22:41.274Z,28.21
2023-04-10T04:23:41.317Z,28.14
2023-04-10T04:24:41.357Z,28.10
2023-04-10T04:25:41.416Z,28.13
2023-04-10T04:26:41.441Z,28.10
2023-04-10T04:27:41.453Z,28.08
2023-04-10T04:28:41.490Z,28.05
2023-04-10T04:29:41.534Z,28.05
2023-04-10T04:30:41.558Z,28.08
2023-04-10T04:31:41.660Z,28.02
2023-04-10T04:32:41.662Z,28.05
2023-04-10T04:33:41.652Z,28.04
2023-04-10T04:34:41.684Z,28.04
2023-04-10T04:35:42.554Z,28.04
2023-04-10T04:36:41.795Z,28.01
2023-04-10T04:37:41.757Z,28.04
2023-04-10T04:38:41.783Z,28.00
2023-04-10T04:39:41.793Z,27.98
2023-04-10T04:40:41.833Z,28.03
2023-04-10T04:41:41.895Z,27.97
2023-04-10T04:42:41.898Z,27.96
2023-04-10T04:43:41.917Z,27.94
2023-04-10T04:44:41.921Z,27.98
2023-04-10T04:45:41.962Z,27.91
2023-04-10T04:46:44.401Z,27.92
2023-04-10T04:47:41.982Z,27.91
2023-04-10T04:48:41.949Z,27.85
2023-04-10T04:49:41.915Z,27.82
2023-04-10T04:50:41.928Z,27.81
2023-04-10T04:51:41.903Z,27.79
2023-04-10T04:52:42.508Z,27.81
2023-04-10T04:53:41.890Z,27.77
2023-04-10T04:54:41.887Z,27.77
2023-04-10T04:55:41.891Z,27.75
2023-04-10T04:56:41.931Z,27.71
2023-04-10T04:57:41.873Z,27.69
2023-04-10T04:58:41.875Z,27.65
2023-04-10T04:59:41.872Z,27.65
2023-04-10T05:00:41.918Z,27.66
2023-04-10T05:01:41.980Z,27.57
2023-04-10T05:02:41.979Z,27.59
2023-04-10T05:03:42.003Z,27.49
2023-04-10T05:04:41.801Z,27.45
2023-04-10T05:05:41.854Z,27.47
2023-04-10T05:06:41.819Z,27.46
2023-04-10T05:07:41.814Z,27.40
2023-04-10T05:08:41.818Z,27.33
2023-04-10T05:09:41.778Z,27.29
2023-04-10T05:10:41.790Z,27.24
2023-04-10T05:11:41.828Z,27.19
2023-04-10T05:12:41.802Z,27.12
2023-04-10T05:13:41.758Z,27.15
2023-04-10T05:14:41.749Z,27.06
2023-04-10T05:15:41.781Z,26.92
2023-04-10T05:16:41.759Z,26.82
2023-04-10T05:17:41.835Z,26.66
2023-04-10T05:18:41.781Z,26.63
2023-04-10T05:19:41.705Z,26.48
2023-04-10T05:20:41.725Z,26.19
2023-04-10T05:21:41.766Z,25.10
2023-04-10T05:22:41.706Z,23.36
2023-04-10T05:23:41.678Z,21.74
2023-04-10T05:24:41.667Z,20.36
2023-04-10T05:25:41.666Z,19.18
2023-04-10T05:26:41.703Z,18.51
2023-04-10T05:27:41.660Z,18.49
2023-04-10T05:28:41.676Z,19.06
2023-04-10T05:29:41.682Z,19.66
2023-04-10T05:30:41.668Z,20.15
2023-04-10T05:31:41.673Z,20.60
2023-04-10T05:32:41.703Z,20.85
2023-04-10T05:33:41.631Z,21.29
2023-04-10T05:34:41.678Z,21.49
2023-04-10T05:35:41.684Z,21.73
2023-04-10T05:36:41.643Z,21.91
2023-04-10T05:37:41.618Z,21.67
2023-04-10T05:38:41.596Z,20.67
2023-04-10T05:39:41.622Z,18.85
2023-04-10T05:40:41.610Z,17.45
2023-04-10T05:41:41.573Z,16.36
2023-04-10T05:42:41.560Z,15.41
2023-04-10T05:43:41.597Z,14.69
2023-04-10T05:44:41.560Z,14.07
2023-04-10T05:45:41.590Z,13.45
2023-04-10T05:46:41.688Z,13.02
2023-04-10T05:47:41.586Z,12.65
2023-04-10T05:48:41.560Z,12.32
2023-04-10T05:49:41.544Z,12.09
2023-04-10T05:50:41.631Z,12.31
2023-04-10T05:51:41.664Z,13.15
2023-04-10T05:52:41.713Z,14.15
2023-04-10T05:53:41.730Z,15.11
2023-04-10T05:54:41.742Z,16.00
2023-04-10T05:55:41.808Z,16.74
2023-04-10T05:56:41.843Z,17.37
2023-04-10T05:57:41.853Z,17.93
2023-04-10T05:58:41.929Z,18.44
2023-04-10T05:59:41.924Z,18.94
2023-04-10T06:00:41.960Z,19.34
2023-04-10T06:01:42.049Z,19.70
2023-04-10T06:02:42.209Z,20.01
2023-04-10T06:03:42.152Z,20.34
2023-04-10T06:04:42.193Z,20.65
2023-04-10T06:05:42.124Z,20.81
2023-04-10T06:06:42.140Z,21.03
2023-04-10T06:07:42.147Z,21.19
2023-04-10T06:08:43.139Z,21.32
2023-04-10T06:09:42.383Z,21.56
2023-04-10T06:10:42.320Z,21.71
2023-04-10T06:11:42.378Z,21.78
2023-04-10T06:12:42.443Z,21.90
2023-04-10T06:13:42.457Z,22.01
2023-04-10T06:14:42.530Z,22.10
2023-04-10T06:15:42.608Z,22.14
2023-04-10T06:16:42.686Z,22.22
2023-04-10T06:17:42.749Z,22.32
2023-04-10T06:18:43.065Z,22.35
2023-04-10T06:19:43.135Z,22.47
2023-04-10T06:20:42.858Z,22.48
2023-04-10T06:21:42.828Z,22.50
2023-04-10T06:22:42.838Z,22.53
2023-04-10T06:23:42.991Z,22.51
2023-04-10T06:24:42.928Z,22.55
2023-04-10T06:25:42.989Z,22.55
2023-04-10T06:26:43.146Z,22.50
2023-04-10T06:27:43.142Z,22.58
2023-04-10T06:28:43.199Z,22.56
2023-04-10T06:29:43.208Z,22.60
2023-04-10T06:30:43.251Z,22.63
2023-04-10T06:31:43.348Z,22.63
2023-04-10T06:32:43.367Z,22.61
2023-04-10T06:33:43.483Z,22.69
2023-04-10T06:34:43.425Z,22.73
2023-04-10T06:35:43.460Z,22.71
2023-04-10T06:36:43.511Z,22.77
2023-04-10T06:37:43.526Z,22.72
2023-04-10T06:38:43.596Z,22.69
2023-04-10T06:39:43.672Z,22.78
2023-04-10T06:40:43.630Z,22.72
2023-04-10T06:41:43.721Z,22.82
2023-04-10T06:42:43.717Z,22.80
2023-04-10T06:43:43.751Z,22.79
2023-04-10T06:44:43.819Z,22.85
2023-04-10T06:45:43.850Z,22.88
2023-04-10T06:46:43.894Z,22.88
2023-04-10T06:47:44.110Z,22.89
2023-04-10T06:48:43.993Z,22.93
2023-04-10T06:49:44.065Z,22.94
2023-04-10T06:50:44.032Z,22.94
2023-04-10T06:51:44.087Z,22.94
2023-04-10T06:52:44.138Z,22.95
2023-04-10T06:53:44.177Z,23.02
2023-04-10T06:54:44.218Z,23.00
2023-04-10T06:55:44.235Z,23.03
2023-04-10T06:56:44.304Z,23.05
2023-04-10T06:57:44.336Z,23.11
2023-04-10T06:58:44.360Z,23.12
2023-04-10T06:59:44.424Z,23.15
2023-04-10T07:00:44.477Z,23.19
2023-04-10T07:01:44.476Z,23.22
2023-04-10T07:02:44.551Z,23.23
2023-04-10T07:03:44.585Z,23.29
2023-04-10T07:04:45.101Z,23.32
2023-04-10T07:05:44.626Z,23.40
2023-04-10T07:06:44.645Z,23.41
2023-04-10T07:07:44.642Z,23.44
2023-04-10T07:08:45.601Z,23.54
2023-04-10T07:09:44.728Z,23.57
2023-04-10T07:10:44.777Z,23.59
2023-04-10T07:11:44.801Z,23.57
2023-04-10T07:12:44.869Z,23.68
2023-04-10T07:13:44.931Z,23.70
2023-04-10T07:14:44.929Z,23.71
2023-04-10T07:15:44.968Z,23.74
2023-04-10T07:16:45.119Z,23.88
2023-04-10T07:17:45.127Z,23.92
2023-04-10T07:18:46.332Z,23.97
2023-04-10T07:19:45.335Z,23.96
2023-04-10T07:20:45.369Z,24.03
2023-04-10T07:21:45.375Z,24.06
2023-04-10T07:22:45.430Z,24.16
2023-04-10T07:23:45.453Z,24.17
2023-04-10T07:24:45.486Z,24.25
2023-04-10T07:25:45.549Z,24.22
2023-04-10T07:26:45.579Z,24.31
2023-04-10T07:27:45.652Z,24.28
2023-04-10T07:28:45.598Z,24.39
2023-04-10T07:29:45.628Z,24.38
2023-04-10T07:30:45.666Z,24.39
2023-04-10T07:31:45.898Z,24.47
2023-04-10T07:32:45.846Z,24.53
2023-04-10T07:33:45.775Z,24.56
2023-04-10T07:34:45.777Z,24.56
2023-04-10T07:35:45.809Z,24.66
2023-04-10T07:36:46.175Z,24.70
2023-04-10T07:37:45.844Z,24.70
2023-04-10T07:38:45.870Z,24.73
2023-04-10T07:39:45.874Z,24.77
2023-04-10T07:40:45.965Z,24.82
2023-04-10T07:41:45.933Z,24.85
2023-04-10T07:42:46.004Z,24.95
2023-04-10T07:43:45.985Z,24.89
2023-04-10T07:44:45.998Z,24.95
2023-04-10T07:45:46.038Z,24.94
2023-04-10T07:46:46.040Z,25.04
2023-04-10T07:47:46.151Z,25.09
2023-04-10T07:48:46.074Z,25.09
2023-04-10T07:49:46.097Z,25.11
2023-04-10T07:50:46.111Z,25.12
2023-04-10T07:51:47.145Z,25.12
2023-04-10T07:52:46.166Z,25.20
2023-04-10T07:53:46.201Z,25.19
2023-04-10T07:54:46.225Z,25.19
2023-04-10T07:55:46.294Z,25.19
2023-04-10T07:56:46.297Z,25.20
2023-04-10T07:57:46.331Z,25.22
2023-04-10T07:58:46.358Z,25.27
2023-04-10T07:59:46.396Z,25.27
2023-04-10T08:00:46.430Z,25.28
2023-04-10T08:01:46.542Z,25.36
2023-04-10T08:02:46.557Z,25.39
2023-04-10T08:03:46.582Z,25.39
2023-04-10T08:04:46.587Z,25.42
2023-04-10T08:05:46.569Z,25.44
2023-04-10T08:06:46.610Z,25.44
2023-04-10T08:07:46.656Z,25.47
2023-04-10T08:08:46.709Z,25.49
2023-04-10T08:09:46.744Z,25.43
2023-04-10T08:10:46.777Z,25.44
2023-04-10T08:11:47.132Z,25.46
2023-04-10T08:12:46.894Z,25.51
2023-04-10T08:13:46.851Z,25.49
2023-04-10T08:14:46.885Z,25.49
2023-04-10T08:15:46.900Z,25.53
2023-04-10T08:16:46.985Z,25.57
2023-04-10T08:17:46.983Z,25.56
2023-04-10T08:18:46.991Z,25.58
2023-04-10T08:19:47.005Z,25.58
2023-04-10T08:20:47.089Z,25.55
2023-04-10T08:21:47.110Z,25.58
2023-04-10T08:22:48.152Z,25.56
2023-04-10T08:23:47.154Z,25.55
2023-04-10T08:24:47.232Z,25.59
2023-04-10T08:25:47.243Z,25.65
2023-04-10T08:26:47.247Z,25.58
2023-04-10T08:27:47.350Z,25.63
2023-04-10T08:28:47.345Z,25.62
2023-04-10T08:29:47.435Z,25.63
2023-04-10T08:30:47.443Z,25.58
2023-04-10T08:31:47.428Z,25.66
2023-04-10T08:32:47.523Z,25.62
2023-04-10T08:33:47.530Z,25.65
2023-04-10T08:34:47.579Z,25.65
2023-04-10T08:35:47.641Z,25.65
2023-04-10T08:36:47.684Z,25.66
2023-04-10T08:37:53.596Z,25.66
2023-04-10T08:38:48.729Z,25.72
2023-04-10T08:39:47.674Z,25.72
2023-04-10T08:40:47.696Z,25.72
2023-04-10T08:41:47.680Z,25.78
2023-04-10T08:42:47.657Z,25.76
2023-04-10T08:43:47.652Z,25.75
2023-04-10T08:44:47.650Z,25.75
2023-04-10T08:45:47.683Z,25.75
2023-04-10T08:46:47.622Z,25.74
2023-04-10T08:47:48.160Z,25.81
2023-04-10T08:48:47.620Z,25.81
2023-04-10T08:49:47.628Z,25.82
2023-04-10T08:50:47.593Z,25.78
2023-04-10T08:51:49.036Z,25.84
2023-04-10T08:52:47.628Z,25.86
2023-04-10T08:53:47.584Z,25.85
2023-04-10T08:54:47.562Z,25.88
2023-04-10T08:55:47.603Z,25.88
2023-04-10T08:56:47.560Z,25.89
2023-04-10T08:57:54.126Z,25.84
2023-04-10T08:58:48.555Z,25.88
2023-04-10T08:59:47.562Z,25.91
2023-04-10T09:00:47.564Z,25.93
2023-04-10T09:01:47.640Z,25.95
2023-04-10T09:02:47.738Z,25.95
2023-04-10T09:03:47.657Z,25.93
2023-04-10T09:04:47.681Z,25.96
2023-04-10T09:05:47.721Z,25.98
2023-04-10T09:06:48.627Z,26.00
2023-04-10T09:07:47.857Z,25.99
2023-04-10T09:08:47.939Z,26.00
2023-04-10T09:09:47.972Z,26.02
2023-04-10T09:10:48.036Z,25.99
2023-04-10T09:11:48.089Z,26.00
2023-04-10T09:12:48.116Z,26.00
2023-04-10T09:13:48.177Z,26.02
2023-04-10T09:14:48.250Z,26.06
2023-04-10T09:15:48.314Z,26.07
2023-04-10T09:16:48.295Z,26.12
2023-04-10T09:17:48.381Z,26.11
2023-04-10T09:18:48.403Z,26.01
2023-04-10T09:19:48.417Z,26.02
2023-04-10T09:20:48.407Z,25.95
2023-04-10T09:21:48.426Z,26.09
2023-04-10T09:22:48.393Z,25.95
2023-04-10T09:23:48.440Z,25.77
2023-04-10T09:24:48.455Z,25.50
2023-04-10T09:25:49.874Z,25.31
2023-04-10T09:26:48.418Z,25.19
2023-04-10T09:27:48.498Z,25.63
2023-04-10T09:28:48.402Z,25.16
2023-04-10T09:29:48.442Z,25.12
2023-04-10T09:30:48.394Z,25.20
2023-04-10T09:31:48.601Z,25.29
2023-04-10T09:32:48.497Z,25.26
2023-04-10T09:33:48.444Z,25.21
2023-04-10T09:34:48.367Z,25.13
2023-04-10T09:35:48.420Z,25.12
2023-04-10T09:36:48.411Z,25.20
2023-04-10T09:37:48.344Z,25.12
2023-04-10T09:38:48.333Z,25.18
2023-04-10T09:39:48.358Z,25.14
2023-04-10T09:40:49.140Z,25.13
2023-04-10T09:41:48.342Z,25.11
2023-04-10T09:42:48.303Z,25.23
2023-04-10T09:43:48.325Z,25.37
2023-04-10T09:44:48.291Z,25.87
2023-04-10T09:45:48.275Z,26.20
2023-04-10T09:46:48.324Z,26.54
2023-04-10T09:47:48.282Z,27.33
2023-04-10T09:48:48.258Z,27.45
2023-04-10T09:49:48.315Z,27.58
2023-04-10T09:50:48.238Z,27.45
2023-04-10T09:51:48.269Z,27.41
2023-04-10T09:52:48.237Z,27.42
2023-04-10T09:53:48.268Z,27.47
2023-04-10T09:54:48.207Z,27.48
2023-04-10T09:55:48.239Z,27.51
2023-04-10T09:56:48.209Z,27.45
2023-04-10T09:57:48.264Z,27.51
2023-04-10T09:58:48.201Z,27.52
2023-04-10T09:59:48.213Z,27.52
2023-04-10T10:00:48.198Z,27.54
2023-04-10T10:01:48.277Z,27.54
2023-04-10T10:02:48.316Z,27.47
2023-04-10T10:03:48.271Z,27.47
2023-04-10T10:04:48.180Z,27.52
2023-04-10T10:05:48.174Z,27.51
2023-04-10T10:06:48.259Z,27.39
2023-04-10T10:07:48.151Z,27.48
2023-04-10T10:08:48.177Z,27.47
2023-04-10T10:09:48.160Z,27.48
2023-04-10T10:10:48.122Z,27.49
2023-04-10T10:11:48.127Z,27.51
2023-04-10T10:12:48.097Z,27.48
2023-04-10T10:13:48.121Z,27.44
2023-04-10T10:14:48.130Z,27.44
2023-04-10T10:15:48.210Z,27.51
2023-04-10T10:16:48.340Z,27.46
2023-04-10T10:17:48.284Z,27.45
2023-04-10T10:18:48.277Z,27.44
2023-04-10T10:19:48.276Z,27.44
2023-04-10T10:20:48.351Z,27.47
2023-04-10T10:21:48.429Z,27.44
2023-04-10T10:22:49.248Z,27.47
2023-04-10T10:23:48.518Z,27.45
2023-04-10T10:24:48.479Z,27.47
2023-04-10T10:25:48.525Z,27.50
2023-04-10T10:26:48.569Z,27.46
2023-04-10T10:27:48.587Z,27.47
2023-04-10T10:28:48.705Z,27.49
2023-04-10T10:29:48.675Z,27.49
2023-04-10T10:30:48.746Z,27.44
2023-04-10T10:31:48.800Z,27.49
2023-04-10T10:32:48.845Z,27.43
2023-04-10T10:33:48.855Z,27.44
2023-04-10T10:34:48.883Z,27.40
2023-04-10T10:35:48.951Z,27.43
2023-04-10T10:36:49.054Z,27.41
2023-04-10T10:37:49.035Z,27.47
2023-04-10T10:38:49.112Z,27.45
2023-04-10T10:39:49.109Z,27.47
2023-04-10T10:40:49.156Z,27.41
2023-04-10T10:41:49.218Z,27.46
2023-04-10T10:42:49.276Z,27.43
2023-04-10T10:43:49.301Z,27.48
2023-04-10T10:44:49.403Z,27.48
2023-04-10T10:45:49.493Z,27.48
2023-04-10T10:46:49.459Z,27.44
2023-04-10T10:47:49.572Z,27.41
2023-04-10T10:48:49.531Z,27.41
2023-04-10T10:49:50.182Z,27.45
2023-04-10T10:50:49.680Z,27.42
2023-04-10T10:51:49.687Z,27.39
2023-04-10T10:52:49.777Z,27.41
2023-04-10T10:53:49.791Z,27.41
2023-04-10T10:54:59.209Z,27.37
2023-04-10T10:55:50.852Z,27.38
2023-04-10T10:56:49.848Z,27.35
2023-04-10T10:57:49.804Z,27.39
2023-04-10T10:58:49.854Z,27.38
2023-04-10T10:59:49.915Z,27.36
2023-04-10T11:00:50.034Z,27.41
2023-04-10T11:01:50.106Z,27.35
2023-04-10T11:02:50.197Z,27.35
2023-04-10T11:03:50.257Z,27.36
2023-04-10T11:04:50.177Z,27.39
2023-04-10T11:05:51.108Z,27.33
2023-04-10T11:06:50.292Z,27.36
2023-04-10T11:07:51.187Z,27.37
2023-04-10T11:08:50.385Z,27.36
2023-04-10T11:09:50.456Z,27.33
2023-04-10T11:10:50.516Z,27.37
2023-04-10T11:11:50.595Z,27.30
2023-04-10T11:12:50.636Z,27.36
2023-04-10T11:13:50.682Z,27.33
2023-04-10T11:14:50.746Z,27.36
2023-04-10T11:15:50.800Z,27.34
2023-04-10T11:16:51.237Z,27.34
2023-04-10T11:17:51.014Z,27.34
2023-04-10T11:18:59.306Z,27.35
2023-04-10T11:19:52.083Z,27.36
2023-04-10T11:20:51.016Z,27.33
2023-04-10T11:21:50.990Z,27.30
2023-04-10T11:22:51.062Z,27.33
2023-04-10T11:23:51.077Z,27.37
2023-04-10T11:24:51.141Z,27.33
2023-04-10T11:25:51.246Z,27.35
2023-04-10T11:26:51.237Z,27.38
2023-04-10T11:27:51.295Z,27.35
2023-04-10T11:28:51.362Z,27.35
2023-04-10T11:29:51.406Z,27.30
2023-04-10T11:30:51.428Z,27.29
2023-04-10T11:31:51.582Z,27.33
2023-04-10T11:32:51.521Z,27.35
2023-04-10T11:33:51.542Z,27.30
2023-04-10T11:34:51.577Z,27.27
2023-04-10T11:35:51.650Z,27.35
2023-04-10T11:36:51.622Z,27.27
2023-04-10T11:37:51.590Z,27.30
2023-04-10T11:38:51.801Z,27.31
2023-04-10T11:39:51.719Z,27.31
2023-04-10T11:40:51.655Z,27.30
2023-04-10T11:41:51.757Z,27.26
2023-04-10T11:42:52.190Z,27.31
2023-04-10T11:43:51.744Z,27.30
2023-04-10T11:44:52.225Z,27.27
2023-04-10T11:45:51.695Z,27.27
2023-04-10T11:46:51.775Z,27.31
2023-04-10T11:47:51.771Z,27.27
2023-04-10T11:48:51.708Z,27.27
2023-04-10T11:49:51.771Z,27.25
2023-04-10T11:50:51.776Z,27.25
2023-04-10T11:51:51.792Z,27.21
2023-04-10T11:52:52.262Z,27.24
2023-04-10T11:53:51.725Z,27.18
2023-04-10T11:54:51.719Z,27.18
2023-04-10T11:55:51.708Z,27.21
2023-04-10T11:56:51.758Z,27.21
2023-04-10T11:57:51.723Z,27.16
2023-04-10T11:58:51.829Z,27.21
2023-04-10T11:59:51.753Z,27.16
2023-04-10T12:00:51.701Z,27.16
2023-04-10T12:01:51.722Z,27.16
2023-04-10T12:02:52.161Z,27.15
2023-04-10T12:03:51.995Z,27.16
2023-04-10T12:04:51.770Z,27.16
2023-04-10T12:05:51.681Z,27.16
2023-04-10T12:06:51.713Z,27.13
2023-04-10T12:07:51.686Z,27.13
2023-04-10T12:08:51.716Z,27.15
2023-04-10T12:09:51.655Z,27.15
2023-04-10T12:10:51.696Z,27.16
2023-04-10T12:11:51.666Z,27.14
2023-04-10T12:12:51.701Z,27.16
2023-04-10T12:13:51.711Z,27.14
2023-04-10T12:14:51.706Z,27.14
2023-04-10T12:15:51.679Z,27.13
2023-04-10T12:16:51.685Z,27.11
2023-04-10T12:17:51.711Z,27.13
2023-04-10T12:18:51.788Z,27.13
2023-04-10T12:19:51.750Z,27.16
2023-04-10T12:20:51.691Z,27.17
2023-04-10T12:21:51.749Z,27.11
2023-04-10T12:22:51.773Z,27.15
2023-04-10T12:23:51.720Z,27.17
2023-04-10T12:24:51.771Z,27.14
2023-04-10T12:25:51.777Z,27.20
2023-04-10T12:26:51.776Z,27.20
2023-04-10T12:27:51.773Z,27.15
2023-04-10T12:28:52.192Z,27.18
2023-04-10T12:29:51.811Z,27.18
2023-04-10T12:30:51.876Z,27.14
2023-04-10T12:31:51.858Z,27.15
2023-04-10T12:32:51.970Z,27.16
2023-04-10T12:33:51.880Z,27.13
2023-04-10T12:34:52.001Z,27.15
2023-04-10T12:35:51.926Z,27.15
2023-04-10T12:36:51.980Z,27.16
2023-04-10T12:37:51.947Z,27.17
2023-04-10T12:38:52.019Z,27.15
2023-04-10T12:39:51.995Z,27.19
2023-04-10T12:40:52.021Z,27.17
2023-04-10T12:41:52.039Z,27.13
2023-04-10T12:42:52.064Z,27.20
2023-04-10T12:43:52.072Z,27.19
2023-04-10T12:44:52.153Z,27.17
2023-04-10T12:45:52.196Z,27.12
2023-04-10T12:46:52.805Z,27.16
2023-04-10T12:47:52.221Z,27.13
2023-04-10T12:48:52.496Z,27.15
2023-04-10T12:49:52.237Z,27.12
2023-04-10T12:50:52.226Z,27.13
2023-04-10T12:51:52.258Z,27.20
2023-04-10T12:52:52.229Z,27.13